<?xml version="1.0" encoding="UTF-8" standalone="no" ?>
<gpx xmlns="http://www.topografix.com/GPX/1/1" xmlns:xsi="http://www.w3.org/2001/XMLSchema-instance" xsi:schemaLocation="http://www.topografix.com/GPX/1/1 http://www.topografix.com/GPX/1/1/gpx.xsd" version="1.1" creator="VisuGPX - https://www.visugpx.com">
  <metadata>
    <name>tour france</name>
  </metadata>
  <trk>
    <name><![CDATA[SES_6]]></name>
    <extensions>
      <line xmlns="http://www.topografix.com/GPX/gpx_style/0/2">
        <color>FF00FF</color>
        <width>4</width>
      </line>
    </extensions>
    <trkseg>
      <trkpt lat="44.36765" lon="1.39017">
        <ele>270.7</ele>
        <extensions>
          <visugpx:TrkExtension xmlns:visugpx="https://www.visugpx.com/editgpx/">
            <visugpx:node>7</visugpx:node>
            </visugpx:TrkExtension>
        </extensions>
      </trkpt>
      <trkpt lat="44.36693" lon="1.38991">
        <ele>276.321</ele>
        <time>2016-09-26T15:31:26Z</time>
      </trkpt>
      <trkpt lat="44.36561" lon="1.38875">
        <ele>277.908</ele>
        <time>2016-09-26T15:31:46Z</time>
      </trkpt>
      <trkpt lat="44.36485" lon="1.38821">
        <ele>275.289</ele>
        <time>2016-09-26T15:32:06Z</time>
      </trkpt>
      <trkpt lat="44.36417" lon="1.38695">
        <ele>281.056</ele>
        <time>2016-09-26T15:32:26Z</time>
      </trkpt>
      <trkpt lat="44.3633" lon="1.38862">
        <ele>283.8</ele>
        <time>2019-03-30T13:50:08Z</time>
      </trkpt>
      <trkpt lat="44.36256" lon="1.38666">
        <ele>284</ele>
        <time>2016-09-26T15:33:06Z</time>
      </trkpt>
      <trkpt lat="44.36207" lon="1.38521">
        <ele>286.56</ele>
        <time>2016-09-26T15:33:26Z</time>
      </trkpt>
      <trkpt lat="44.36176" lon="1.38341">
        <ele>287.3</ele>
        <time>2016-09-26T15:33:46Z</time>
      </trkpt>
      <trkpt lat="44.36149" lon="1.38139">
        <ele>284.384</ele>
        <time>2016-09-26T15:34:06Z</time>
      </trkpt>
      <trkpt lat="44.36124" lon="1.38015">
        <ele>283.983</ele>
        <time>2016-09-26T15:34:26Z</time>
      </trkpt>
      <trkpt lat="44.36056" lon="1.37858">
        <ele>281.057</ele>
        <time>2019-03-30T13:52:08Z</time>
      </trkpt>
      <trkpt lat="44.36005" lon="1.37602">
        <ele>280.9</ele>
      </trkpt>
      <trkpt lat="44.35974" lon="1.37491">
        <ele>282.3</ele>
        <time>2016-09-26T15:35:46Z</time>
      </trkpt>
      <trkpt lat="44.35718" lon="1.36948">
        <ele>273.72</ele>
        <time>2016-09-26T15:36:06Z</time>
      </trkpt>
      <trkpt lat="44.35692" lon="1.36855">
        <ele>279.1</ele>
        <time>2016-09-26T15:36:26Z</time>
      </trkpt>
      <trkpt lat="44.35669" lon="1.36694">
        <ele>275.7</ele>
        <time>2016-09-26T15:36:46Z</time>
      </trkpt>
      <trkpt lat="44.35669" lon="1.36483">
        <ele>271.128</ele>
        <time>2019-03-30T13:53:48Z</time>
      </trkpt>
      <trkpt lat="44.35661" lon="1.36323">
        <ele>268.2</ele>
        <time>2016-09-26T15:37:06Z</time>
      </trkpt>
      <trkpt lat="44.35675" lon="1.36264">
        <ele>267.6</ele>
      </trkpt>
      <trkpt lat="44.35701" lon="1.36195">
        <ele>266.5</ele>
        <time>2016-09-26T15:37:26Z</time>
      </trkpt>
      <trkpt lat="44.35732" lon="1.36171">
        <ele>265</ele>
      </trkpt>
      <trkpt lat="44.35736" lon="1.36152">
        <ele>265.5</ele>
        <time>2016-09-26T15:37:46Z</time>
      </trkpt>
      <trkpt lat="44.35731" lon="1.3614">
        <ele>266.3</ele>
      </trkpt>
      <trkpt lat="44.35711" lon="1.3613">
        <ele>266.7</ele>
      </trkpt>
      <trkpt lat="44.35689" lon="1.36128">
        <ele>266.4</ele>
        <time>2016-09-26T15:38:06Z</time>
      </trkpt>
      <trkpt lat="44.35624" lon="1.36173">
        <ele>266.746</ele>
        <time>2016-09-26T15:38:26Z</time>
      </trkpt>
      <trkpt lat="44.35541" lon="1.3615">
        <ele>264.325</ele>
        <time>2016-09-26T15:38:46Z</time>
      </trkpt>
      <trkpt lat="44.35489" lon="1.36116">
        <ele>264.7</ele>
      </trkpt>
      <trkpt lat="44.35449" lon="1.3607">
        <ele>266.5</ele>
        <time>2016-09-26T15:39:06Z</time>
      </trkpt>
      <trkpt lat="44.35412" lon="1.35989">
        <ele>270.405</ele>
        <time>2016-09-26T15:39:26Z</time>
      </trkpt>
      <trkpt lat="44.35371" lon="1.3587">
        <ele>271.6</ele>
        <time>2016-09-26T15:39:46Z</time>
      </trkpt>
      <trkpt lat="44.35349" lon="1.35719">
        <ele>273</ele>
        <time>2016-09-26T15:40:06Z</time>
      </trkpt>
      <trkpt lat="44.35369" lon="1.35566">
        <ele>268.993</ele>
        <time>2016-09-26T15:40:26Z</time>
      </trkpt>
      <trkpt lat="44.35365" lon="1.35467">
        <ele>270.5</ele>
        <time>2016-09-26T15:40:46Z</time>
      </trkpt>
      <trkpt lat="44.35358" lon="1.35426">
        <ele>270.8</ele>
      </trkpt>
      <trkpt lat="44.35331" lon="1.35381">
        <ele>271.4</ele>
        <time>2019-03-30T13:58:08Z</time>
      </trkpt>
      <trkpt lat="44.35301" lon="1.35365">
        <ele>271.6</ele>
      </trkpt>
      <trkpt lat="44.35273" lon="1.35354">
        <ele>272.6</ele>
        <time>2019-03-30T13:58:28Z</time>
      </trkpt>
      <trkpt lat="44.3525" lon="1.35349">
        <ele>273</ele>
      </trkpt>
      <trkpt lat="44.35174" lon="1.35337">
        <ele>272.014</ele>
        <time>2019-03-30T13:58:48Z</time>
      </trkpt>
      <trkpt lat="44.35115" lon="1.35249">
        <ele>271.685</ele>
        <time>2016-09-26T15:42:06Z</time>
      </trkpt>
      <trkpt lat="44.35078" lon="1.35212">
        <ele>272.068</ele>
        <time>2016-09-26T15:42:26Z</time>
      </trkpt>
      <trkpt lat="44.35016" lon="1.35068">
        <ele>274.6</ele>
        <time>2016-09-26T15:42:46Z</time>
      </trkpt>
      <trkpt lat="44.34846" lon="1.34528">
        <ele>273.029</ele>
        <time>2016-09-26T15:43:06Z</time>
      </trkpt>
      <trkpt lat="44.34796" lon="1.34266">
        <ele>277.3</ele>
        <time>2016-09-26T15:43:26Z</time>
      </trkpt>
      <trkpt lat="44.34797" lon="1.3409">
        <ele>272.52</ele>
        <time>2016-09-26T15:43:46Z</time>
      </trkpt>
      <trkpt lat="44.34805" lon="1.34023">
        <ele>271.708</ele>
        <time>2016-09-26T15:44:06Z</time>
      </trkpt>
      <trkpt lat="44.34786" lon="1.33938">
        <ele>268.328</ele>
        <time>2016-09-26T15:44:26Z</time>
      </trkpt>
      <trkpt lat="44.34755" lon="1.3372">
        <ele>270.1</ele>
        <time>2016-09-26T15:44:46Z</time>
      </trkpt>
      <trkpt lat="44.34726" lon="1.33689">
        <ele>271.864</ele>
        <time>2016-09-26T15:45:06Z</time>
      </trkpt>
      <trkpt lat="44.34684" lon="1.33629">
        <ele>268.4</ele>
        <time>2016-09-26T15:45:26Z</time>
      </trkpt>
      <trkpt lat="44.34674" lon="1.33541">
        <ele>267.1</ele>
      </trkpt>
      <trkpt lat="44.34674" lon="1.3351">
        <ele>266.3</ele>
      </trkpt>
      <trkpt lat="44.34656" lon="1.33448">
        <ele>264.329</ele>
        <time>2016-09-26T15:45:46Z</time>
      </trkpt>
      <trkpt lat="44.34461" lon="1.33103">
        <ele>258.66</ele>
        <time>2016-09-26T15:46:06Z</time>
      </trkpt>
      <trkpt lat="44.34405" lon="1.3307">
        <ele>258.7</ele>
        <time>2016-09-26T15:46:26Z</time>
      </trkpt>
      <trkpt lat="44.34357" lon="1.33068">
        <ele>259.5</ele>
      </trkpt>
      <trkpt lat="44.34334" lon="1.33079">
        <ele>260</ele>
      </trkpt>
      <trkpt lat="44.34286" lon="1.33072">
        <ele>261.7</ele>
        <time>2016-09-26T15:46:46Z</time>
      </trkpt>
      <trkpt lat="44.34235" lon="1.33046">
        <ele>262.7</ele>
        <time>2016-09-26T15:47:06Z</time>
      </trkpt>
      <trkpt lat="44.34108" lon="1.32865">
        <ele>268.9</ele>
        <time>2016-09-26T15:47:26Z</time>
      </trkpt>
      <trkpt lat="44.34071" lon="1.3285">
        <ele>269.62</ele>
        <time>2016-09-26T15:47:46Z</time>
      </trkpt>
      <trkpt lat="44.3405" lon="1.32822">
        <ele>269.508</ele>
        <time>2016-09-26T15:48:06Z</time>
      </trkpt>
      <trkpt lat="44.34036" lon="1.32665">
        <ele>270.241</ele>
        <time>2016-09-26T15:48:26Z</time>
      </trkpt>
      <trkpt lat="44.34005" lon="1.32481">
        <ele>262.048</ele>
        <time>2016-09-26T15:48:46Z</time>
      </trkpt>
      <trkpt lat="44.33935" lon="1.32352">
        <ele>265.017</ele>
        <time>2016-09-26T15:49:06Z</time>
      </trkpt>
      <trkpt lat="44.33947" lon="1.32305">
        <ele>266.116</ele>
        <time>2016-09-26T15:49:26Z</time>
      </trkpt>
      <trkpt lat="44.33935" lon="1.32142">
        <ele>260.472</ele>
        <time>2016-09-26T15:49:46Z</time>
      </trkpt>
      <trkpt lat="44.3395" lon="1.32091">
        <ele>260.3</ele>
      </trkpt>
      <trkpt lat="44.33952" lon="1.32071">
        <ele>258.923</ele>
        <time>2016-09-26T15:50:06Z</time>
      </trkpt>
      <trkpt lat="44.33993" lon="1.32003">
        <ele>252.9</ele>
        <time>2016-09-26T15:50:26Z</time>
      </trkpt>
      <trkpt lat="44.34022" lon="1.31948">
        <ele>249.775</ele>
        <time>2016-09-26T15:50:46Z</time>
      </trkpt>
      <trkpt lat="44.3407" lon="1.31897">
        <ele>239.4</ele>
      </trkpt>
      <trkpt lat="44.34125" lon="1.31862">
        <ele>233.2</ele>
      </trkpt>
      <trkpt lat="44.34141" lon="1.31854">
        <ele>231.7</ele>
        <time>2016-09-26T15:51:06Z</time>
      </trkpt>
      <trkpt lat="44.34188" lon="1.3185">
        <ele>223.033</ele>
        <time>2016-09-26T15:51:26Z</time>
      </trkpt>
      <trkpt lat="44.3422" lon="1.31803">
        <ele>217.526</ele>
        <time>2016-09-26T15:51:46Z</time>
      </trkpt>
      <trkpt lat="44.34177" lon="1.31648">
        <ele>210.408</ele>
        <time>2016-09-26T15:52:06Z</time>
      </trkpt>
      <trkpt lat="44.34136" lon="1.31633">
        <ele>206.353</ele>
        <time>2016-09-26T15:52:26Z</time>
      </trkpt>
      <trkpt lat="44.34106" lon="1.31569">
        <ele>200.2</ele>
        <time>2016-09-26T15:52:46Z</time>
      </trkpt>
      <trkpt lat="44.34125" lon="1.31551">
        <ele>197.5</ele>
        <time>2016-09-26T15:53:06Z</time>
      </trkpt>
      <trkpt lat="44.34171" lon="1.31543">
        <ele>195.738</ele>
        <time>2016-09-26T15:53:26Z</time>
      </trkpt>
      <trkpt lat="44.34229" lon="1.31457">
        <ele>184.1</ele>
      </trkpt>
      <trkpt lat="44.34267" lon="1.31432">
        <ele>181.4</ele>
      </trkpt>
      <trkpt lat="44.3426" lon="1.31418">
        <ele>182.734</ele>
        <time>2016-09-26T15:53:46Z</time>
      </trkpt>
      <trkpt lat="44.34186" lon="1.31071">
        <ele>178.735</ele>
        <time>2016-09-26T15:54:06Z</time>
      </trkpt>
      <trkpt lat="44.34168" lon="1.31006">
        <ele>178</ele>
      </trkpt>
      <trkpt lat="44.3414" lon="1.30981">
        <ele>179.058</ele>
        <time>2016-09-26T15:54:26Z</time>
      </trkpt>
      <trkpt lat="44.34043" lon="1.30998">
        <ele>177.9</ele>
      </trkpt>
      <trkpt lat="44.33947" lon="1.30996">
        <ele>178.397</ele>
        <time>2016-09-26T15:54:46Z</time>
      </trkpt>
      <trkpt lat="44.33901" lon="1.30972">
        <ele>178.427</ele>
        <time>2016-09-26T15:55:06Z</time>
      </trkpt>
      <trkpt lat="44.33959" lon="1.30825">
        <ele>177.868</ele>
        <time>2019-03-30T14:12:28Z</time>
      </trkpt>
      <trkpt lat="44.33974" lon="1.3074">
        <ele>185.414</ele>
        <time>2019-03-30T14:12:48Z</time>
      </trkpt>
      <trkpt lat="44.3391" lon="1.30633">
        <ele>187.008</ele>
        <time>2016-09-26T15:56:06Z</time>
      </trkpt>
      <trkpt lat="44.33948" lon="1.30515">
        <ele>191.8</ele>
        <time>2016-09-26T15:56:26Z</time>
      </trkpt>
      <trkpt lat="44.33982" lon="1.30559">
        <ele>190.1</ele>
      </trkpt>
      <trkpt lat="44.33983" lon="1.3057">
        <ele>191.825</ele>
        <time>2019-03-30T14:13:48Z</time>
      </trkpt>
      <trkpt lat="44.34036" lon="1.30561">
        <ele>188.684</ele>
        <time>2019-03-30T14:14:08Z</time>
      </trkpt>
      <trkpt lat="44.34069" lon="1.30515">
        <ele>187.513</ele>
        <time>2019-03-30T14:14:28Z</time>
      </trkpt>
      <trkpt lat="44.34105" lon="1.30505">
        <ele>188.099</ele>
        <time>2019-03-30T14:14:48Z</time>
      </trkpt>
      <trkpt lat="44.34159" lon="1.30317">
        <ele>194.27</ele>
        <time>2019-03-30T14:15:08Z</time>
      </trkpt>
      <trkpt lat="44.34177" lon="1.30146">
        <ele>201.033</ele>
        <time>2019-03-30T14:15:28Z</time>
      </trkpt>
      <trkpt lat="44.34244" lon="1.3013">
        <ele>207.372</ele>
        <time>2019-03-30T14:15:48Z</time>
      </trkpt>
      <trkpt lat="44.34341" lon="1.30043">
        <ele>225.637</ele>
        <time>2016-09-26T15:58:46Z</time>
      </trkpt>
      <trkpt lat="44.34441" lon="1.29937">
        <ele>237.249</ele>
        <time>2019-03-30T14:16:28Z</time>
      </trkpt>
      <trkpt lat="44.34438" lon="1.29652">
        <ele>258.813</ele>
        <time>2016-09-26T15:59:26Z</time>
      </trkpt>
      <trkpt lat="44.34455" lon="1.2949">
        <ele>262.508</ele>
        <time>2019-03-30T14:17:08Z</time>
      </trkpt>
      <trkpt lat="44.34367" lon="1.29384">
        <ele>264.7</ele>
        <time>2016-09-26T16:00:06Z</time>
      </trkpt>
      <trkpt lat="44.34445" lon="1.29247">
        <ele>262.8</ele>
        <time>2016-09-26T16:00:26Z</time>
      </trkpt>
      <trkpt lat="44.34532" lon="1.29168">
        <ele>260.295</ele>
        <time>2016-09-26T16:00:46Z</time>
      </trkpt>
      <trkpt lat="44.3457" lon="1.29082">
        <ele>253.334</ele>
        <time>2016-09-26T16:01:06Z</time>
      </trkpt>
      <trkpt lat="44.34621" lon="1.29054">
        <ele>258.68</ele>
        <time>2016-09-26T16:01:26Z</time>
      </trkpt>
      <trkpt lat="44.34696" lon="1.28931">
        <ele>260.271</ele>
        <time>2016-09-26T16:01:46Z</time>
      </trkpt>
      <trkpt lat="44.34779" lon="1.2873">
        <ele>263.074</ele>
        <time>2016-09-26T16:02:06Z</time>
      </trkpt>
      <trkpt lat="44.34791" lon="1.28657">
        <ele>261.333</ele>
        <time>2016-09-26T16:02:26Z</time>
      </trkpt>
      <trkpt lat="44.34772" lon="1.28653">
        <ele>259.9</ele>
      </trkpt>
      <trkpt lat="44.34758" lon="1.28636">
        <ele>261.3</ele>
      </trkpt>
      <trkpt lat="44.34738" lon="1.28606">
        <ele>258.1</ele>
        <time>2016-09-26T16:02:46Z</time>
      </trkpt>
      <trkpt lat="44.3472" lon="1.28551">
        <ele>256.3</ele>
      </trkpt>
      <trkpt lat="44.3471" lon="1.28496">
        <ele>261.022</ele>
        <time>2016-09-26T16:03:06Z</time>
      </trkpt>
      <trkpt lat="44.34612" lon="1.28376">
        <ele>269.8</ele>
        <time>2016-09-26T16:03:26Z</time>
      </trkpt>
      <trkpt lat="44.34587" lon="1.28304">
        <ele>274.9</ele>
      </trkpt>
      <trkpt lat="44.34556" lon="1.28247">
        <ele>271.008</ele>
        <time>2016-09-26T16:03:46Z</time>
      </trkpt>
      <trkpt lat="44.34537" lon="1.28207">
        <ele>270.8</ele>
      </trkpt>
      <trkpt lat="44.3451" lon="1.28178">
        <ele>269.75</ele>
        <time>2016-09-26T16:04:06Z</time>
      </trkpt>
      <trkpt lat="44.34503" lon="1.28146">
        <ele>272.5</ele>
      </trkpt>
      <trkpt lat="44.34497" lon="1.28112">
        <ele>273</ele>
        <time>2016-09-26T16:04:26Z</time>
      </trkpt>
      <trkpt lat="44.34488" lon="1.28022">
        <ele>275.9</ele>
        <time>2016-09-26T16:04:46Z</time>
      </trkpt>
      <trkpt lat="44.34479" lon="1.27885">
        <ele>275.5</ele>
        <time>2016-09-26T16:05:06Z</time>
      </trkpt>
      <trkpt lat="44.3449" lon="1.27802">
        <ele>270.8</ele>
        <time>2016-09-26T16:05:26Z</time>
      </trkpt>
      <trkpt lat="44.34469" lon="1.27733">
        <ele>268.6</ele>
      </trkpt>
      <trkpt lat="44.3446" lon="1.27681">
        <ele>271.9</ele>
        <time>2016-09-26T16:05:46Z</time>
      </trkpt>
      <trkpt lat="44.3445" lon="1.27549">
        <ele>275.6</ele>
      </trkpt>
      <trkpt lat="44.34449" lon="1.27495">
        <ele>277.5</ele>
      </trkpt>
      <trkpt lat="44.34443" lon="1.27461">
        <ele>275.8</ele>
      </trkpt>
      <trkpt lat="44.34453" lon="1.27424">
        <ele>272.6</ele>
      </trkpt>
      <trkpt lat="44.34446" lon="1.2737">
        <ele>268.7</ele>
        <time>2016-09-26T16:06:06Z</time>
      </trkpt>
      <trkpt lat="44.34466" lon="1.27198">
        <ele>262.054</ele>
        <time>2016-09-26T16:06:26Z</time>
      </trkpt>
      <trkpt lat="44.34437" lon="1.27117">
        <ele>261.5</ele>
      </trkpt>
      <trkpt lat="44.34422" lon="1.27043">
        <ele>263.9</ele>
        <time>2016-09-26T16:06:46Z</time>
      </trkpt>
      <trkpt lat="44.34398" lon="1.26945">
        <ele>268.6</ele>
      </trkpt>
      <trkpt lat="44.34383" lon="1.26842">
        <ele>271.201</ele>
        <time>2016-09-26T16:07:06Z</time>
      </trkpt>
      <trkpt lat="44.34398" lon="1.2668">
        <ele>277.5</ele>
      </trkpt>
      <trkpt lat="44.34406" lon="1.26651">
        <ele>278.7</ele>
        <time>2016-09-26T16:07:26Z</time>
      </trkpt>
      <trkpt lat="44.34422" lon="1.26634">
        <ele>278.2</ele>
      </trkpt>
      <trkpt lat="44.34456" lon="1.26616">
        <ele>276.308</ele>
        <time>2016-09-26T16:07:46Z</time>
      </trkpt>
      <trkpt lat="44.34452" lon="1.26597">
        <ele>280.211</ele>
        <time>2016-09-26T16:08:06Z</time>
      </trkpt>
      <trkpt lat="44.34396" lon="1.26633">
        <ele>282.3</ele>
        <time>2016-09-26T16:08:26Z</time>
      </trkpt>
      <trkpt lat="44.34436" lon="1.26352">
        <ele>277.917</ele>
        <time>2016-09-26T16:08:46Z</time>
      </trkpt>
      <trkpt lat="44.34512" lon="1.25898">
        <ele>264.476</ele>
        <time>2021-01-03T06:58:20Z</time>
      </trkpt>
      <trkpt lat="44.34562" lon="1.25666">
        <ele>262.792</ele>
        <time>2021-01-03T06:58:40Z</time>
      </trkpt>
      <trkpt lat="44.34589" lon="1.25508">
        <ele>260.553</ele>
        <time>2021-01-03T06:59:00Z</time>
      </trkpt>
      <trkpt lat="44.3458" lon="1.25372">
        <ele>257.426</ele>
        <time>2021-01-03T06:59:20Z</time>
      </trkpt>
      <trkpt lat="44.34488" lon="1.25383">
        <ele>255.355</ele>
        <time>2021-01-03T06:59:40Z</time>
      </trkpt>
      <trkpt lat="44.34381" lon="1.25341">
        <ele>256.417</ele>
        <time>2021-01-03T07:00:00Z</time>
      </trkpt>
      <trkpt lat="44.34337" lon="1.25346">
        <ele>257.987</ele>
        <time>2021-01-03T07:00:20Z</time>
      </trkpt>
      <trkpt lat="44.3428" lon="1.25399">
        <ele>257.515</ele>
        <time>2021-01-03T07:00:40Z</time>
      </trkpt>
      <trkpt lat="44.34297" lon="1.25326">
        <ele>255.408</ele>
        <time>2021-01-03T07:01:00Z</time>
      </trkpt>
      <trkpt lat="44.34263" lon="1.25292">
        <ele>253.867</ele>
        <time>2021-01-03T07:01:20Z</time>
      </trkpt>
      <trkpt lat="44.34281" lon="1.2525">
        <ele>253.084</ele>
        <time>2021-01-03T07:01:40Z</time>
      </trkpt>
      <trkpt lat="44.34313" lon="1.25123">
        <ele>242.013</ele>
        <time>2021-01-03T07:02:00Z</time>
      </trkpt>
      <trkpt lat="44.34321" lon="1.2509">
        <ele>229.3</ele>
        <time>2021-01-03T07:02:20Z</time>
      </trkpt>
      <trkpt lat="44.34302" lon="1.24973">
        <ele>240.088</ele>
        <time>2021-01-03T07:02:40Z</time>
      </trkpt>
      <trkpt lat="44.342" lon="1.24856">
        <ele>235.339</ele>
        <time>2021-01-03T07:03:00Z</time>
      </trkpt>
      <trkpt lat="44.34089" lon="1.24789">
        <ele>225.612</ele>
        <time>2021-01-03T07:03:20Z</time>
      </trkpt>
      <trkpt lat="44.3404" lon="1.2471">
        <ele>224.921</ele>
        <time>2021-01-03T07:03:40Z</time>
      </trkpt>
      <trkpt lat="44.34014" lon="1.24617">
        <ele>229.814</ele>
        <time>2021-01-03T07:04:00Z</time>
      </trkpt>
      <trkpt lat="44.33971" lon="1.24576">
        <ele>227.854</ele>
        <time>2021-01-03T07:04:20Z</time>
      </trkpt>
      <trkpt lat="44.33865" lon="1.2451">
        <ele>229.609</ele>
        <time>2021-01-03T07:04:40Z</time>
      </trkpt>
      <trkpt lat="44.33797" lon="1.24506">
        <ele>230.808</ele>
        <time>2021-01-03T07:05:00Z</time>
      </trkpt>
      <trkpt lat="44.33782" lon="1.24474">
        <ele>237.547</ele>
        <time>2021-01-03T07:05:20Z</time>
      </trkpt>
      <trkpt lat="44.33775" lon="1.24391">
        <ele>251.454</ele>
        <time>2021-01-03T07:05:40Z</time>
      </trkpt>
      <trkpt lat="44.33758" lon="1.24386">
        <ele>250.123</ele>
        <time>2021-01-03T07:06:00Z</time>
      </trkpt>
      <trkpt lat="44.33728" lon="1.24411">
        <ele>243.512</ele>
        <time>2021-01-03T07:06:20Z</time>
      </trkpt>
      <trkpt lat="44.33667" lon="1.24404">
        <ele>240.878</ele>
        <time>2021-01-03T07:06:40Z</time>
      </trkpt>
      <trkpt lat="44.33695" lon="1.24459">
        <ele>227.279</ele>
        <time>2021-01-03T07:07:00Z</time>
      </trkpt>
      <trkpt lat="44.33639" lon="1.24427">
        <ele>230.712</ele>
        <time>2021-01-03T07:07:20Z</time>
      </trkpt>
      <trkpt lat="44.33568" lon="1.24415">
        <ele>214.841</ele>
        <time>2021-01-03T07:07:40Z</time>
      </trkpt>
      <trkpt lat="44.33528" lon="1.24367">
        <ele>218.324</ele>
        <time>2021-01-03T07:08:00Z</time>
      </trkpt>
      <trkpt lat="44.33512" lon="1.24298">
        <ele>215.104</ele>
        <time>2021-01-03T07:08:20Z</time>
      </trkpt>
      <trkpt lat="44.33526" lon="1.24269">
        <ele>217.214</ele>
        <time>2021-01-03T07:08:40Z</time>
      </trkpt>
      <trkpt lat="44.33506" lon="1.24259">
        <ele>211.808</ele>
        <time>2021-01-03T07:09:00Z</time>
      </trkpt>
      <trkpt lat="44.336" lon="1.24123">
        <ele>227.738</ele>
        <time>2021-01-03T07:09:20Z</time>
      </trkpt>
      <trkpt lat="44.33852" lon="1.23791">
        <ele>251.885</ele>
        <time>2021-01-03T07:09:40Z</time>
      </trkpt>
      <trkpt lat="44.3387" lon="1.23734">
        <ele>252.944</ele>
        <time>2021-01-03T07:10:00Z</time>
      </trkpt>
      <trkpt lat="44.34066" lon="1.23941">
        <ele>264.683</ele>
        <time>2021-01-03T07:10:20Z</time>
      </trkpt>
      <trkpt lat="44.34116" lon="1.23771">
        <ele>262.849</ele>
        <time>2021-01-03T07:10:40Z</time>
      </trkpt>
      <trkpt lat="44.34225" lon="1.2349">
        <ele>264.64</ele>
        <time>2016-09-26T16:14:26Z</time>
      </trkpt>
      <trkpt lat="44.34269" lon="1.23412">
        <ele>265.143</ele>
        <time>2021-01-03T07:11:20Z</time>
      </trkpt>
      <trkpt lat="44.34317" lon="1.23041">
        <ele>264.432</ele>
        <time>2016-09-26T16:15:26Z</time>
      </trkpt>
      <trkpt lat="44.34297" lon="1.22923">
        <ele>261.093</ele>
        <time>2016-09-26T16:15:46Z</time>
      </trkpt>
      <trkpt lat="44.34149" lon="1.22299">
        <ele>244.865</ele>
        <time>2016-09-26T16:16:06Z</time>
      </trkpt>
      <trkpt lat="44.34107" lon="1.22211">
        <ele>247.621</ele>
        <time>2016-09-26T16:16:26Z</time>
      </trkpt>
      <trkpt lat="44.34037" lon="1.22046">
        <ele>247.708</ele>
        <time>2016-09-26T16:16:46Z</time>
      </trkpt>
      <trkpt lat="44.33967" lon="1.21906">
        <ele>246.365</ele>
        <time>2016-09-26T16:17:06Z</time>
      </trkpt>
      <trkpt lat="44.33932" lon="1.21707">
        <ele>237.262</ele>
        <time>2016-09-26T16:17:26Z</time>
      </trkpt>
      <trkpt lat="44.33862" lon="1.21432">
        <ele>215.8</ele>
        <time>2019-03-30T14:34:28Z</time>
      </trkpt>
      <trkpt lat="44.33864" lon="1.21345">
        <ele>209</ele>
      </trkpt>
      <trkpt lat="44.33875" lon="1.2126">
        <ele>202.49</ele>
        <time>2016-09-26T16:18:26Z</time>
      </trkpt>
      <trkpt lat="44.33878" lon="1.21244">
        <ele>198.8</ele>
      </trkpt>
      <trkpt lat="44.3386" lon="1.21232">
        <ele>196.6</ele>
      </trkpt>
      <trkpt lat="44.3385" lon="1.21192">
        <ele>190.9</ele>
      </trkpt>
      <trkpt lat="44.33856" lon="1.21183">
        <ele>190.5</ele>
      </trkpt>
      <trkpt lat="44.33857" lon="1.21164">
        <ele>189.8</ele>
      </trkpt>
      <trkpt lat="44.3386" lon="1.21144">
        <ele>189.1</ele>
      </trkpt>
      <trkpt lat="44.33862" lon="1.21128">
        <ele>188.7</ele>
      </trkpt>
      <trkpt lat="44.33862" lon="1.21118">
        <ele>188.4</ele>
      </trkpt>
      <trkpt lat="44.33862" lon="1.21108">
        <ele>188.1</ele>
      </trkpt>
      <trkpt lat="44.33859" lon="1.21094">
        <ele>187.9</ele>
      </trkpt>
      <trkpt lat="44.33857" lon="1.21083">
        <ele>187.9</ele>
      </trkpt>
      <trkpt lat="44.33854" lon="1.21072">
        <ele>188.9</ele>
      </trkpt>
      <trkpt lat="44.33849" lon="1.21055">
        <ele>190.1</ele>
      </trkpt>
      <trkpt lat="44.33845" lon="1.21045">
        <ele>190.2</ele>
      </trkpt>
      <trkpt lat="44.33843" lon="1.21043">
        <ele>190.1</ele>
      </trkpt>
      <trkpt lat="44.33837" lon="1.21037">
        <ele>189.9</ele>
      </trkpt>
      <trkpt lat="44.33829" lon="1.21032">
        <ele>189.8</ele>
      </trkpt>
      <trkpt lat="44.33818" lon="1.2103">
        <ele>189.8</ele>
      </trkpt>
      <trkpt lat="44.33809" lon="1.21024">
        <ele>190.2</ele>
      </trkpt>
      <trkpt lat="44.33801" lon="1.21016">
        <ele>189.9</ele>
      </trkpt>
      <trkpt lat="44.33786" lon="1.20996">
        <ele>189.9</ele>
      </trkpt>
      <trkpt lat="44.33774" lon="1.20972">
        <ele>189.2</ele>
      </trkpt>
      <trkpt lat="44.33764" lon="1.20943">
        <ele>189.6</ele>
      </trkpt>
      <trkpt lat="44.33751" lon="1.20904">
        <ele>189.6</ele>
      </trkpt>
      <trkpt lat="44.33748" lon="1.20889">
        <ele>189.6</ele>
      </trkpt>
      <trkpt lat="44.33745" lon="1.20875">
        <ele>189.7</ele>
      </trkpt>
      <trkpt lat="44.33742" lon="1.20859">
        <ele>189.8</ele>
      </trkpt>
      <trkpt lat="44.33739" lon="1.20821">
        <ele>189.2</ele>
      </trkpt>
      <trkpt lat="44.33737" lon="1.20783">
        <ele>188.7</ele>
      </trkpt>
      <trkpt lat="44.33737" lon="1.2078">
        <ele>188.7</ele>
      </trkpt>
      <trkpt lat="44.33737" lon="1.20761">
        <ele>188.7</ele>
      </trkpt>
      <trkpt lat="44.33737" lon="1.2078">
        <ele>188.7</ele>
      </trkpt>
      <trkpt lat="44.33737" lon="1.20783">
        <ele>188.7</ele>
      </trkpt>
      <trkpt lat="44.33739" lon="1.20821">
        <ele>189.2</ele>
      </trkpt>
      <trkpt lat="44.33742" lon="1.2085">
        <ele>189.8</ele>
        <extensions>
          <visugpx:TrkExtension xmlns:visugpx="https://www.visugpx.com/editgpx/">
            <visugpx:node>1</visugpx:node>
            </visugpx:TrkExtension>
        </extensions>
      </trkpt>
      <trkpt lat="44.33751" lon="1.20891">
        <ele>190</ele>
      </trkpt>
      <trkpt lat="44.33762" lon="1.20932">
        <ele>189.9</ele>
      </trkpt>
      <trkpt lat="44.33769" lon="1.20952">
        <ele>189.8</ele>
      </trkpt>
      <trkpt lat="44.33783" lon="1.20984">
        <ele>190.4</ele>
      </trkpt>
      <trkpt lat="44.33795" lon="1.21004">
        <ele>189.9</ele>
      </trkpt>
      <trkpt lat="44.33813" lon="1.21023">
        <ele>190.2</ele>
      </trkpt>
      <trkpt lat="44.33844" lon="1.21041">
        <ele>190.3</ele>
      </trkpt>
      <trkpt lat="44.33851" lon="1.21056">
        <ele>190.3</ele>
      </trkpt>
      <trkpt lat="44.33856" lon="1.21071">
        <ele>189.1</ele>
        <extensions>
          <visugpx:TrkExtension xmlns:visugpx="https://www.visugpx.com/editgpx/">
            <visugpx:node>2</visugpx:node>
            </visugpx:TrkExtension>
        </extensions>
      </trkpt>
      <trkpt lat="44.33862" lon="1.21101">
        <ele>188.1</ele>
      </trkpt>
      <trkpt lat="44.33863" lon="1.21126">
        <ele>188.8</ele>
      </trkpt>
      <trkpt lat="44.3386" lon="1.21155">
        <ele>189.6</ele>
      </trkpt>
      <trkpt lat="44.33854" lon="1.21183">
        <ele>190.5</ele>
        <extensions>
          <visugpx:TrkExtension xmlns:visugpx="https://www.visugpx.com/editgpx/">
            <visugpx:node>3</visugpx:node>
            </visugpx:TrkExtension>
        </extensions>
      </trkpt>
      <trkpt lat="44.3377" lon="1.21162">
        <ele>181.9</ele>
      </trkpt>
      <trkpt lat="44.33757" lon="1.21163">
        <ele>180.4</ele>
      </trkpt>
      <trkpt lat="44.33718" lon="1.21175">
        <ele>175.6</ele>
      </trkpt>
      <trkpt lat="44.33679" lon="1.21195">
        <ele>171.7</ele>
        <extensions>
          <visugpx:TrkExtension xmlns:visugpx="https://www.visugpx.com/editgpx/">
            <visugpx:node>4</visugpx:node>
            </visugpx:TrkExtension>
        </extensions>
      </trkpt>
      <trkpt lat="44.33674" lon="1.21199">
        <ele>172.84</ele>
        <time>2019-03-30T14:35:48Z</time>
        <extensions>
          <visugpx:TrkExtension xmlns:visugpx="https://www.visugpx.com/editgpx/">
            <visugpx:node>5</visugpx:node>
            </visugpx:TrkExtension>
        </extensions>
      </trkpt>
      <trkpt lat="44.33528" lon="1.21292">
        <ele>175</ele>
        <time>2019-03-30T14:36:08Z</time>
      </trkpt>
      <trkpt lat="44.33452" lon="1.21296">
        <ele>182.8</ele>
        <time>2016-09-26T16:19:46Z</time>
      </trkpt>
      <trkpt lat="44.33443" lon="1.21296">
        <ele>183.9</ele>
      </trkpt>
      <trkpt lat="44.3325" lon="1.214">
        <ele>218.6</ele>
        <time>2016-09-26T16:20:06Z</time>
      </trkpt>
      <trkpt lat="44.33175" lon="1.21422">
        <ele>231.1</ele>
      </trkpt>
      <trkpt lat="44.33106" lon="1.21393">
        <ele>237.9</ele>
        <time>2019-03-30T14:37:08Z</time>
      </trkpt>
      <trkpt lat="44.33024" lon="1.214">
        <ele>251.008</ele>
        <time>2019-03-30T14:37:28Z</time>
      </trkpt>
      <trkpt lat="44.32929" lon="1.21472">
        <ele>254</ele>
        <time>2016-09-26T16:20:46Z</time>
      </trkpt>
      <trkpt lat="44.32739" lon="1.2154">
        <ele>258.569</ele>
        <time>2019-03-30T14:38:08Z</time>
      </trkpt>
      <trkpt lat="44.32674" lon="1.21623">
        <ele>262.8</ele>
      </trkpt>
      <trkpt lat="44.32611" lon="1.21723">
        <ele>260</ele>
        <time>2019-03-30T14:38:28Z</time>
      </trkpt>
      <trkpt lat="44.3258" lon="1.2167">
        <ele>259.157</ele>
        <time>2019-03-30T14:38:48Z</time>
      </trkpt>
      <trkpt lat="44.32527" lon="1.21648">
        <ele>258.363</ele>
        <time>2019-03-30T14:39:08Z</time>
      </trkpt>
      <trkpt lat="44.32299" lon="1.21739">
        <ele>252.764</ele>
        <time>2019-03-30T14:39:28Z</time>
      </trkpt>
      <trkpt lat="44.32266" lon="1.21803">
        <ele>250.267</ele>
        <time>2016-09-26T16:22:46Z</time>
      </trkpt>
      <trkpt lat="44.32178" lon="1.21846">
        <ele>243.5</ele>
        <time>2019-03-30T14:40:08Z</time>
      </trkpt>
      <trkpt lat="44.3213" lon="1.2177">
        <ele>245.6</ele>
        <time>2019-03-30T14:40:28Z</time>
      </trkpt>
      <trkpt lat="44.31978" lon="1.21786">
        <ele>251.476</ele>
        <time>2016-09-26T16:24:06Z</time>
      </trkpt>
      <trkpt lat="44.3172" lon="1.21796">
        <ele>249.313</ele>
        <time>2019-03-30T14:41:08Z</time>
      </trkpt>
      <trkpt lat="44.31592" lon="1.21844">
        <ele>241.608</ele>
        <time>2019-03-30T14:41:28Z</time>
      </trkpt>
      <trkpt lat="44.31491" lon="1.21855">
        <ele>221.9</ele>
      </trkpt>
      <trkpt lat="44.31402" lon="1.21872">
        <ele>206.537</ele>
        <time>2019-03-30T14:41:48Z</time>
      </trkpt>
      <trkpt lat="44.31409" lon="1.21794">
        <ele>206.6</ele>
      </trkpt>
      <trkpt lat="44.31408" lon="1.21743">
        <ele>202.2</ele>
        <time>2019-03-30T14:42:08Z</time>
      </trkpt>
      <trkpt lat="44.31424" lon="1.21707">
        <ele>204.4</ele>
      </trkpt>
      <trkpt lat="44.31421" lon="1.21668">
        <ele>203.9</ele>
      </trkpt>
      <trkpt lat="44.31406" lon="1.21625">
        <ele>203.343</ele>
        <time>2019-03-30T14:42:28Z</time>
      </trkpt>
      <trkpt lat="44.31404" lon="1.21614">
        <ele>195.6</ele>
      </trkpt>
      <trkpt lat="44.31378" lon="1.21593">
        <ele>186</ele>
      </trkpt>
      <trkpt lat="44.31354" lon="1.21575">
        <ele>178.8</ele>
      </trkpt>
      <trkpt lat="44.31345" lon="1.21559">
        <ele>177.1</ele>
        <time>2019-03-30T14:42:48Z</time>
      </trkpt>
      <trkpt lat="44.31349" lon="1.21504">
        <ele>178</ele>
      </trkpt>
      <trkpt lat="44.31346" lon="1.21492">
        <ele>178.5</ele>
      </trkpt>
      <trkpt lat="44.3133" lon="1.21461">
        <ele>186.869</ele>
        <time>2019-03-30T14:43:28Z</time>
      </trkpt>
      <trkpt lat="44.31294" lon="1.21487">
        <ele>179.2</ele>
        <time>2019-03-30T14:43:48Z</time>
      </trkpt>
      <trkpt lat="44.31258" lon="1.21485">
        <ele>182.851</ele>
        <time>2019-03-30T14:44:08Z</time>
      </trkpt>
      <trkpt lat="44.31168" lon="1.21503">
        <ele>189.982</ele>
        <time>2019-03-30T14:44:28Z</time>
      </trkpt>
      <trkpt lat="44.31125" lon="1.21615">
        <ele>181.643</ele>
        <time>2019-03-30T14:44:48Z</time>
      </trkpt>
      <trkpt lat="44.31107" lon="1.21716">
        <ele>167.317</ele>
        <time>2019-03-30T14:45:08Z</time>
      </trkpt>
      <trkpt lat="44.31064" lon="1.21807">
        <ele>160.408</ele>
        <time>2019-03-30T14:45:28Z</time>
      </trkpt>
      <trkpt lat="44.31045" lon="1.21883">
        <ele>154.7</ele>
        <time>2019-03-30T14:45:48Z</time>
      </trkpt>
      <trkpt lat="44.31024" lon="1.21882">
        <ele>154.541</ele>
        <time>2019-03-30T14:46:08Z</time>
      </trkpt>
      <trkpt lat="44.30958" lon="1.21765">
        <ele>152.21</ele>
        <time>2016-09-26T16:26:46Z</time>
      </trkpt>
      <trkpt lat="44.30937" lon="1.21696">
        <ele>151.549</ele>
        <time>2019-03-30T14:46:48Z</time>
      </trkpt>
      <trkpt lat="44.3087" lon="1.21577">
        <ele>150.1</ele>
      </trkpt>
      <trkpt lat="44.30795" lon="1.21469">
        <ele>149.345</ele>
        <time>2019-03-30T14:47:08Z</time>
      </trkpt>
      <trkpt lat="44.3078" lon="1.21282">
        <ele>150.366</ele>
        <time>2016-09-26T16:27:46Z</time>
      </trkpt>
      <trkpt lat="44.30686" lon="1.21251">
        <ele>148.039</ele>
        <time>2019-03-30T14:47:48Z</time>
      </trkpt>
      <trkpt lat="44.3058" lon="1.2129">
        <ele>151.518</ele>
        <time>2016-09-26T16:28:26Z</time>
      </trkpt>
      <trkpt lat="44.30517" lon="1.21052">
        <ele>154.787</ele>
        <time>2019-03-30T14:48:28Z</time>
      </trkpt>
      <trkpt lat="44.30456" lon="1.21011">
        <ele>156.542</ele>
        <time>2016-09-26T16:29:26Z</time>
      </trkpt>
      <trkpt lat="44.30398" lon="1.21041">
        <ele>160.7</ele>
        <time>2016-09-26T16:29:46Z</time>
      </trkpt>
      <trkpt lat="44.30318" lon="1.2108">
        <ele>171.008</ele>
        <time>2016-09-26T16:30:06Z</time>
      </trkpt>
      <trkpt lat="44.30283" lon="1.21011">
        <ele>172.494</ele>
        <time>2016-09-26T16:30:26Z</time>
      </trkpt>
      <trkpt lat="44.30287" lon="1.20836">
        <ele>182.391</ele>
        <time>2016-09-26T16:30:46Z</time>
      </trkpt>
      <trkpt lat="44.30272" lon="1.20775">
        <ele>187.53</ele>
        <time>2016-09-26T16:31:06Z</time>
      </trkpt>
      <trkpt lat="44.30163" lon="1.2069">
        <ele>189.699</ele>
        <time>2019-03-30T14:50:48Z</time>
      </trkpt>
      <trkpt lat="44.30087" lon="1.20661">
        <ele>184.985</ele>
        <time>2019-03-30T14:51:08Z</time>
      </trkpt>
      <trkpt lat="44.30064" lon="1.20597">
        <ele>175.236</ele>
        <time>2016-09-26T16:32:06Z</time>
      </trkpt>
      <trkpt lat="44.30059" lon="1.20521">
        <ele>172.379</ele>
        <time>2019-03-30T14:51:48Z</time>
      </trkpt>
      <trkpt lat="44.29976" lon="1.20506">
        <ele>171.378</ele>
        <time>2019-03-30T14:52:08Z</time>
      </trkpt>
      <trkpt lat="44.29891" lon="1.2041">
        <ele>172.329</ele>
        <time>2019-03-30T14:52:28Z</time>
      </trkpt>
      <trkpt lat="44.29853" lon="1.204">
        <ele>171.4</ele>
        <time>2019-03-30T14:52:48Z</time>
      </trkpt>
      <trkpt lat="44.29838" lon="1.20403">
        <ele>170.3</ele>
      </trkpt>
      <trkpt lat="44.2972" lon="1.20524">
        <ele>169.72</ele>
        <time>2016-09-26T16:34:06Z</time>
      </trkpt>
      <trkpt lat="44.29629" lon="1.20584">
        <ele>173.7</ele>
        <time>2019-03-30T14:53:28Z</time>
      </trkpt>
      <trkpt lat="44.29536" lon="1.20344">
        <ele>179.028</ele>
        <time>2016-09-26T16:35:06Z</time>
      </trkpt>
      <trkpt lat="44.29531" lon="1.20212">
        <ele>177.975</ele>
        <time>2019-03-30T14:54:08Z</time>
      </trkpt>
      <trkpt lat="44.29495" lon="1.2015">
        <ele>178.264</ele>
        <time>2019-03-30T14:54:28Z</time>
      </trkpt>
      <trkpt lat="44.29417" lon="1.20065">
        <ele>175.343</ele>
        <time>2019-03-30T14:54:48Z</time>
      </trkpt>
      <trkpt lat="44.29367" lon="1.19912">
        <ele>179.939</ele>
        <time>2019-03-30T14:55:08Z</time>
      </trkpt>
      <trkpt lat="44.29366" lon="1.19838">
        <ele>184.45</ele>
        <time>2016-09-26T16:36:46Z</time>
      </trkpt>
      <trkpt lat="44.29328" lon="1.19771">
        <ele>192.493</ele>
        <time>2019-03-30T14:55:48Z</time>
      </trkpt>
      <trkpt lat="44.29256" lon="1.19721">
        <ele>203.1</ele>
      </trkpt>
      <trkpt lat="44.2917" lon="1.19679">
        <ele>212.8</ele>
        <time>2019-03-30T14:56:08Z</time>
      </trkpt>
      <trkpt lat="44.2914" lon="1.19595">
        <ele>209.6</ele>
        <time>2019-03-30T14:56:28Z</time>
      </trkpt>
      <trkpt lat="44.29133" lon="1.19553">
        <ele>205.7</ele>
      </trkpt>
      <trkpt lat="44.29166" lon="1.19424">
        <ele>204.573</ele>
        <time>2016-09-26T16:38:06Z</time>
      </trkpt>
      <trkpt lat="44.29174" lon="1.19285">
        <ele>185.92</ele>
        <time>2019-03-30T14:57:08Z</time>
      </trkpt>
      <trkpt lat="44.29148" lon="1.19195">
        <ele>181.408</ele>
        <time>2019-03-30T14:57:28Z</time>
      </trkpt>
      <trkpt lat="44.29031" lon="1.19205">
        <ele>175.8</ele>
        <time>2019-03-30T14:57:48Z</time>
      </trkpt>
      <trkpt lat="44.29028" lon="1.19192">
        <ele>176.1</ele>
      </trkpt>
      <trkpt lat="44.29025" lon="1.19165">
        <ele>176.9</ele>
      </trkpt>
      <trkpt lat="44.29014" lon="1.19156">
        <ele>177</ele>
        <time>2019-03-30T14:58:08Z</time>
      </trkpt>
      <trkpt lat="44.28971" lon="1.19113">
        <ele>179.8</ele>
        <time>2016-09-26T16:39:46Z</time>
      </trkpt>
      <trkpt lat="44.28955" lon="1.19074">
        <ele>186</ele>
      </trkpt>
      <trkpt lat="44.28926" lon="1.1898">
        <ele>199</ele>
        <time>2016-09-26T16:40:06Z</time>
      </trkpt>
      <trkpt lat="44.28891" lon="1.18892">
        <ele>219.1</ele>
        <time>2019-03-30T14:59:08Z</time>
      </trkpt>
      <trkpt lat="44.28848" lon="1.18799">
        <ele>240.3</ele>
      </trkpt>
      <trkpt lat="44.28797" lon="1.18718">
        <ele>245.887</ele>
        <time>2016-09-26T16:40:46Z</time>
      </trkpt>
      <trkpt lat="44.28677" lon="1.18431">
        <ele>239.52</ele>
        <time>2019-03-30T14:59:48Z</time>
      </trkpt>
      <trkpt lat="44.28535" lon="1.18287">
        <ele>237.5</ele>
        <time>2019-03-30T15:00:08Z</time>
      </trkpt>
      <trkpt lat="44.28476" lon="1.18221">
        <ele>237.054</ele>
        <time>2019-03-30T15:00:28Z</time>
      </trkpt>
      <trkpt lat="44.28435" lon="1.18147">
        <ele>237.956</ele>
        <time>2016-09-26T16:42:06Z</time>
      </trkpt>
      <trkpt lat="44.28299" lon="1.17917">
        <ele>239.211</ele>
        <time>2019-03-30T15:01:08Z</time>
      </trkpt>
      <trkpt lat="44.28257" lon="1.17798">
        <ele>241.508</ele>
        <time>2019-03-30T15:01:28Z</time>
      </trkpt>
      <trkpt lat="44.28174" lon="1.17779">
        <ele>241.771</ele>
        <time>2019-03-30T15:01:48Z</time>
      </trkpt>
      <trkpt lat="44.28145" lon="1.17652">
        <ele>235.618</ele>
        <time>2019-03-30T15:02:08Z</time>
      </trkpt>
      <trkpt lat="44.28161" lon="1.17556">
        <ele>238.827</ele>
        <time>2019-03-30T15:02:28Z</time>
      </trkpt>
      <trkpt lat="44.28158" lon="1.17402">
        <ele>238.176</ele>
        <time>2016-09-26T16:44:06Z</time>
      </trkpt>
      <trkpt lat="44.28074" lon="1.17072">
        <ele>230.4</ele>
        <time>2016-09-26T16:44:46Z</time>
      </trkpt>
      <trkpt lat="44.28066" lon="1.16969">
        <ele>230.263</ele>
        <time>2016-09-26T16:45:06Z</time>
      </trkpt>
      <trkpt lat="44.28032" lon="1.16765">
        <ele>238.056</ele>
        <time>2016-09-26T16:45:26Z</time>
      </trkpt>
      <trkpt lat="44.28055" lon="1.16486">
        <ele>234.545</ele>
        <time>2016-09-26T16:45:46Z</time>
      </trkpt>
      <trkpt lat="44.28066" lon="1.16382">
        <ele>235.214</ele>
        <time>2019-03-30T15:04:28Z</time>
      </trkpt>
      <trkpt lat="44.28041" lon="1.16289">
        <ele>233.854</ele>
        <time>2019-03-30T15:04:48Z</time>
      </trkpt>
      <trkpt lat="44.279" lon="1.16069">
        <ele>234.409</ele>
        <time>2019-03-30T15:05:08Z</time>
      </trkpt>
      <trkpt lat="44.27788" lon="1.1592">
        <ele>232.8</ele>
      </trkpt>
      <trkpt lat="44.27658" lon="1.16012">
        <ele>225.877</ele>
        <time>2016-09-26T16:47:06Z</time>
      </trkpt>
      <trkpt lat="44.27624" lon="1.16012">
        <ele>216.264</ele>
        <time>2016-09-26T16:47:26Z</time>
      </trkpt>
      <trkpt lat="44.27591" lon="1.16065">
        <ele>209.743</ele>
        <time>2016-09-26T16:47:46Z</time>
      </trkpt>
      <trkpt lat="44.27584" lon="1.1601">
        <ele>203.552</ele>
        <time>2016-09-26T16:48:06Z</time>
      </trkpt>
      <trkpt lat="44.27525" lon="1.15954">
        <ele>182.548</ele>
        <time>2016-09-26T16:48:26Z</time>
      </trkpt>
      <trkpt lat="44.27455" lon="1.1596">
        <ele>170.549</ele>
        <time>2016-09-26T16:48:46Z</time>
      </trkpt>
      <trkpt lat="44.27386" lon="1.15872">
        <ele>165.782</ele>
        <time>2016-09-26T16:49:06Z</time>
      </trkpt>
      <trkpt lat="44.27332" lon="1.15864">
        <ele>166.631</ele>
        <time>2016-09-26T16:49:26Z</time>
      </trkpt>
      <trkpt lat="44.27289" lon="1.15837">
        <ele>168.9</ele>
      </trkpt>
      <trkpt lat="44.27223" lon="1.15821">
        <ele>170.493</ele>
        <time>2016-09-26T16:49:46Z</time>
      </trkpt>
      <trkpt lat="44.2718" lon="1.15769">
        <ele>181.065</ele>
        <time>2016-09-26T16:50:06Z</time>
      </trkpt>
      <trkpt lat="44.27085" lon="1.15777">
        <ele>184</ele>
      </trkpt>
      <trkpt lat="44.27029" lon="1.15765">
        <ele>192.321</ele>
        <time>2016-09-26T16:50:26Z</time>
      </trkpt>
      <trkpt lat="44.26971" lon="1.15699">
        <ele>180.9</ele>
      </trkpt>
      <trkpt lat="44.26906" lon="1.15641">
        <ele>166.208</ele>
        <time>2016-09-26T16:50:46Z</time>
      </trkpt>
      <trkpt lat="44.26887" lon="1.15545">
        <ele>164.585</ele>
        <time>2019-03-30T15:09:48Z</time>
      </trkpt>
      <trkpt lat="44.26842" lon="1.15481">
        <ele>161.322</ele>
        <time>2019-03-30T15:10:08Z</time>
      </trkpt>
      <trkpt lat="44.2682" lon="1.15411">
        <ele>162.261</ele>
        <time>2019-03-30T15:10:28Z</time>
      </trkpt>
      <trkpt lat="44.2675" lon="1.15315">
        <ele>156.03</ele>
        <time>2019-03-30T15:10:48Z</time>
      </trkpt>
      <trkpt lat="44.26724" lon="1.15281">
        <ele>155.2</ele>
      </trkpt>
      <trkpt lat="44.26703" lon="1.15192">
        <ele>147.426</ele>
        <time>2016-09-26T16:52:26Z</time>
      </trkpt>
      <trkpt lat="44.26643" lon="1.15158">
        <ele>143.437</ele>
        <time>2016-09-26T16:52:46Z</time>
      </trkpt>
      <trkpt lat="44.26576" lon="1.15177">
        <ele>143.64</ele>
        <time>2016-09-26T16:53:06Z</time>
      </trkpt>
      <trkpt lat="44.26479" lon="1.14995">
        <ele>143.039</ele>
        <time>2016-09-26T16:53:26Z</time>
      </trkpt>
      <trkpt lat="44.26358" lon="1.1492">
        <ele>127.591</ele>
        <time>2016-09-26T16:53:46Z</time>
      </trkpt>
      <trkpt lat="44.26312" lon="1.14837">
        <ele>129.281</ele>
        <time>2019-03-30T15:12:48Z</time>
      </trkpt>
      <trkpt lat="44.26133" lon="1.14574">
        <ele>128.519</ele>
        <time>2016-09-26T16:54:06Z</time>
      </trkpt>
      <trkpt lat="44.2609" lon="1.14555">
        <ele>128.808</ele>
        <time>2016-09-26T16:54:26Z</time>
      </trkpt>
      <trkpt lat="44.26015" lon="1.14435">
        <ele>129.695</ele>
        <time>2016-09-26T16:54:46Z</time>
      </trkpt>
      <trkpt lat="44.25983" lon="1.14347">
        <ele>138.562</ele>
        <time>2016-09-26T16:55:06Z</time>
      </trkpt>
      <trkpt lat="44.25958" lon="1.14338">
        <ele>139.731</ele>
        <time>2016-09-26T16:55:26Z</time>
      </trkpt>
      <trkpt lat="44.25958" lon="1.14278">
        <ele>142.06</ele>
        <time>2016-09-26T16:55:46Z</time>
      </trkpt>
      <trkpt lat="44.25887" lon="1.14244">
        <ele>159.7</ele>
        <time>2016-09-26T16:56:06Z</time>
      </trkpt>
      <trkpt lat="44.25855" lon="1.14154">
        <ele>164.557</ele>
        <time>2016-09-26T16:56:26Z</time>
      </trkpt>
      <trkpt lat="44.25849" lon="1.14091">
        <ele>172.39</ele>
        <time>2016-09-26T16:56:46Z</time>
      </trkpt>
      <trkpt lat="44.25867" lon="1.14051">
        <ele>176.749</ele>
        <time>2016-09-26T16:57:06Z</time>
      </trkpt>
      <trkpt lat="44.25867" lon="1.13988">
        <ele>181.137</ele>
        <time>2019-03-30T15:16:28Z</time>
      </trkpt>
      <trkpt lat="44.25789" lon="1.1381">
        <ele>214.249</ele>
        <time>2016-09-26T16:57:46Z</time>
      </trkpt>
      <trkpt lat="44.25729" lon="1.13727">
        <ele>215.413</ele>
        <time>2016-09-26T16:58:06Z</time>
      </trkpt>
      <trkpt lat="44.25703" lon="1.13733">
        <ele>222.108</ele>
        <time>2016-09-26T16:58:26Z</time>
      </trkpt>
      <trkpt lat="44.25665" lon="1.1383">
        <ele>228.069</ele>
        <time>2016-09-26T16:58:46Z</time>
      </trkpt>
      <trkpt lat="44.2564" lon="1.13851">
        <ele>226.146</ele>
        <time>2016-09-26T16:59:06Z</time>
      </trkpt>
      <trkpt lat="44.25597" lon="1.13709">
        <ele>219.715</ele>
        <time>2016-09-26T16:59:26Z</time>
      </trkpt>
      <trkpt lat="44.25531" lon="1.13615">
        <ele>207.244</ele>
        <time>2016-09-26T16:59:46Z</time>
      </trkpt>
      <trkpt lat="44.25479" lon="1.13579">
        <ele>199.021</ele>
        <time>2016-09-26T17:00:26Z</time>
      </trkpt>
      <trkpt lat="44.25454" lon="1.13589">
        <ele>191.964</ele>
        <time>2016-09-26T17:00:46Z</time>
      </trkpt>
      <trkpt lat="44.25454" lon="1.13609">
        <ele>190.313</ele>
        <time>2016-09-26T17:01:06Z</time>
      </trkpt>
      <trkpt lat="44.25392" lon="1.13562">
        <ele>174.389</ele>
        <time>2019-03-30T15:20:28Z</time>
      </trkpt>
      <trkpt lat="44.25395" lon="1.13611">
        <ele>175.606</ele>
        <time>2019-03-30T15:20:48Z</time>
      </trkpt>
      <trkpt lat="44.25415" lon="1.13681">
        <ele>174.126</ele>
        <time>2019-03-30T15:21:08Z</time>
      </trkpt>
      <trkpt lat="44.25432" lon="1.13757">
        <ele>171</ele>
        <time>2019-03-30T15:21:28Z</time>
      </trkpt>
      <trkpt lat="44.25426" lon="1.13785">
        <ele>169.2</ele>
      </trkpt>
      <trkpt lat="44.25413" lon="1.13795">
        <ele>166.7</ele>
        <time>2019-03-30T15:21:48Z</time>
      </trkpt>
      <trkpt lat="44.25333" lon="1.13811">
        <ele>154.811</ele>
        <time>2019-03-30T15:22:08Z</time>
      </trkpt>
      <trkpt lat="44.25326" lon="1.13865">
        <ele>152.76</ele>
        <time>2019-03-30T15:22:28Z</time>
      </trkpt>
      <trkpt lat="44.25338" lon="1.13928">
        <ele>151.959</ele>
        <time>2019-03-30T15:22:48Z</time>
      </trkpt>
      <trkpt lat="44.2528" lon="1.13961">
        <ele>139.345</ele>
        <time>2019-03-30T15:23:08Z</time>
      </trkpt>
      <trkpt lat="44.25243" lon="1.13964">
        <ele>132.496</ele>
        <time>2019-03-30T15:23:28Z</time>
      </trkpt>
      <trkpt lat="44.25134" lon="1.14038">
        <ele>112.019</ele>
        <time>2016-09-26T17:04:46Z</time>
      </trkpt>
      <trkpt lat="44.25061" lon="1.14125">
        <ele>102.338</ele>
        <time>2019-03-30T15:24:08Z</time>
      </trkpt>
      <trkpt lat="44.24849" lon="1.14587">
        <ele>111.186</ele>
        <time>2019-03-30T15:24:28Z</time>
      </trkpt>
      <trkpt lat="44.24847" lon="1.14656">
        <ele>114.16</ele>
        <time>2016-09-26T17:05:46Z</time>
      </trkpt>
      <trkpt lat="44.24884" lon="1.14739">
        <ele>119.226</ele>
        <time>2016-09-26T17:06:06Z</time>
      </trkpt>
      <trkpt lat="44.24736" lon="1.14909">
        <ele>132.108</ele>
        <time>2016-09-26T17:06:26Z</time>
      </trkpt>
      <trkpt lat="44.24698" lon="1.14984">
        <ele>134.8</ele>
        <time>2016-09-26T17:06:46Z</time>
      </trkpt>
      <trkpt lat="44.24664" lon="1.1498">
        <ele>134.871</ele>
        <time>2016-09-26T17:07:06Z</time>
      </trkpt>
      <trkpt lat="44.24609" lon="1.15014">
        <ele>145.64</ele>
        <time>2016-09-26T17:07:26Z</time>
      </trkpt>
      <trkpt lat="44.24504" lon="1.15173">
        <ele>174.599</ele>
        <time>2016-09-26T17:07:46Z</time>
      </trkpt>
      <trkpt lat="44.24426" lon="1.15194">
        <ele>181.3</ele>
        <time>2016-09-26T17:08:06Z</time>
      </trkpt>
      <trkpt lat="44.24346" lon="1.15222">
        <ele>184.116</ele>
        <time>2016-09-26T17:08:26Z</time>
      </trkpt>
      <trkpt lat="44.2431" lon="1.15295">
        <ele>201.759</ele>
        <time>2016-09-26T17:08:46Z</time>
      </trkpt>
      <trkpt lat="44.24258" lon="1.15314">
        <ele>209.688</ele>
        <time>2016-09-26T17:09:06Z</time>
      </trkpt>
      <trkpt lat="44.24224" lon="1.15297">
        <ele>212.091</ele>
        <time>2016-09-26T17:09:26Z</time>
      </trkpt>
      <trkpt lat="44.24172" lon="1.15325">
        <ele>211.181</ele>
        <time>2016-09-26T17:09:46Z</time>
      </trkpt>
      <trkpt lat="44.24164" lon="1.15531">
        <ele>224.819</ele>
        <time>2016-09-26T17:10:06Z</time>
      </trkpt>
      <trkpt lat="44.24192" lon="1.15645">
        <ele>228.208</ele>
        <time>2016-09-26T17:10:26Z</time>
      </trkpt>
      <trkpt lat="44.2428" lon="1.15823">
        <ele>222.555</ele>
        <time>2016-09-26T17:10:46Z</time>
      </trkpt>
      <trkpt lat="44.24224" lon="1.15973">
        <ele>205.542</ele>
        <time>2016-09-26T17:11:06Z</time>
      </trkpt>
      <trkpt lat="44.24212" lon="1.16068">
        <ele>202.641</ele>
        <time>2016-09-26T17:11:26Z</time>
      </trkpt>
      <trkpt lat="44.24169" lon="1.16175">
        <ele>195.46</ele>
        <time>2016-09-26T17:11:46Z</time>
      </trkpt>
      <trkpt lat="44.24172" lon="1.16237">
        <ele>194.516</ele>
        <time>2016-09-26T17:12:06Z</time>
      </trkpt>
      <trkpt lat="44.24157" lon="1.16252">
        <ele>191.097</ele>
        <time>2016-09-26T17:12:26Z</time>
      </trkpt>
      <trkpt lat="44.24134" lon="1.16231">
        <ele>185.56</ele>
        <time>2016-09-26T17:12:46Z</time>
      </trkpt>
      <trkpt lat="44.24034" lon="1.16235">
        <ele>170.489</ele>
        <time>2016-09-26T17:13:06Z</time>
      </trkpt>
      <trkpt lat="44.23908" lon="1.16314">
        <ele>156.148</ele>
        <time>2016-09-26T17:13:26Z</time>
      </trkpt>
      <trkpt lat="44.23892" lon="1.16428">
        <ele>154.7</ele>
        <time>2016-09-26T17:13:46Z</time>
      </trkpt>
      <trkpt lat="44.23837" lon="1.1643">
        <ele>159.717</ele>
        <time>2016-09-26T17:14:06Z</time>
      </trkpt>
      <trkpt lat="44.2374" lon="1.16456">
        <ele>169.308</ele>
        <time>2016-09-26T17:14:26Z</time>
      </trkpt>
      <trkpt lat="44.23714" lon="1.16454">
        <ele>170.62</ele>
        <time>2016-09-26T17:14:46Z</time>
      </trkpt>
      <trkpt lat="44.23672" lon="1.16469">
        <ele>171.737</ele>
        <time>2016-09-26T17:15:06Z</time>
      </trkpt>
      <trkpt lat="44.23643" lon="1.16454">
        <ele>167.186</ele>
        <time>2016-09-26T17:15:26Z</time>
      </trkpt>
      <trkpt lat="44.23582" lon="1.1648">
        <ele>176.145</ele>
        <time>2016-09-26T17:15:46Z</time>
      </trkpt>
      <trkpt lat="44.23549" lon="1.16471">
        <ele>179.891</ele>
        <time>2016-09-26T17:16:06Z</time>
      </trkpt>
      <trkpt lat="44.23511" lon="1.16426">
        <ele>173.732</ele>
        <time>2016-09-26T17:16:26Z</time>
      </trkpt>
      <trkpt lat="44.23336" lon="1.16604">
        <ele>170.185</ele>
        <time>2016-09-26T17:16:46Z</time>
      </trkpt>
      <trkpt lat="44.23284" lon="1.1657">
        <ele>162.594</ele>
        <time>2016-09-26T17:17:06Z</time>
      </trkpt>
      <trkpt lat="44.2322" lon="1.16572">
        <ele>155.761</ele>
        <time>2016-09-26T17:17:26Z</time>
      </trkpt>
      <trkpt lat="44.2317" lon="1.16529">
        <ele>150.121</ele>
        <time>2016-09-26T17:17:46Z</time>
      </trkpt>
      <trkpt lat="44.23161" lon="1.16467">
        <ele>150.213</ele>
        <time>2016-09-26T17:18:06Z</time>
      </trkpt>
      <trkpt lat="44.22968" lon="1.16443">
        <ele>137.508</ele>
        <time>2016-09-26T17:18:26Z</time>
      </trkpt>
      <trkpt lat="44.22953" lon="1.16336">
        <ele>135.042</ele>
        <time>2016-09-26T17:18:46Z</time>
      </trkpt>
      <trkpt lat="44.22704" lon="1.16347">
        <ele>120.859</ele>
        <time>2016-09-26T17:19:06Z</time>
      </trkpt>
      <trkpt lat="44.22562" lon="1.16372">
        <ele>115.948</ele>
        <time>2016-09-26T17:19:26Z</time>
      </trkpt>
      <trkpt lat="44.22532" lon="1.16396">
        <ele>114.347</ele>
        <time>2016-09-26T17:19:46Z</time>
      </trkpt>
      <trkpt lat="44.22192" lon="1.16488">
        <ele>104.963</ele>
        <time>2016-09-26T17:20:06Z</time>
      </trkpt>
      <trkpt lat="44.2217" lon="1.1652">
        <ele>104.184</ele>
        <time>2016-09-26T17:20:26Z</time>
      </trkpt>
      <trkpt lat="44.22103" lon="1.16501">
        <ele>106.647</ele>
        <time>2016-09-26T17:20:46Z</time>
      </trkpt>
      <trkpt lat="44.22061" lon="1.16357">
        <ele>105.856</ele>
        <time>2016-09-26T17:21:06Z</time>
      </trkpt>
      <trkpt lat="44.21926" lon="1.16046">
        <ele>105.772</ele>
        <time>2016-09-26T17:21:26Z</time>
      </trkpt>
      <trkpt lat="44.2184" lon="1.15802">
        <ele>105.613</ele>
        <time>2016-09-26T17:21:46Z</time>
      </trkpt>
      <trkpt lat="44.21744" lon="1.15613">
        <ele>104.314</ele>
        <time>2016-09-26T17:22:06Z</time>
      </trkpt>
      <trkpt lat="44.21657" lon="1.15154">
        <ele>101.908</ele>
        <time>2016-09-26T17:22:26Z</time>
      </trkpt>
      <trkpt lat="44.21601" lon="1.15059">
        <ele>102.413</ele>
        <time>2016-09-26T17:22:46Z</time>
      </trkpt>
      <trkpt lat="44.21581" lon="1.14948">
        <ele>104.13</ele>
        <time>2016-09-26T17:23:06Z</time>
      </trkpt>
      <trkpt lat="44.21383" lon="1.15136">
        <ele>119.239</ele>
        <time>2016-09-26T17:23:26Z</time>
      </trkpt>
      <trkpt lat="44.21332" lon="1.15201">
        <ele>123.978</ele>
        <time>2016-09-26T17:23:46Z</time>
      </trkpt>
      <trkpt lat="44.21255" lon="1.15216">
        <ele>131.834</ele>
        <time>2016-09-26T17:24:06Z</time>
      </trkpt>
      <trkpt lat="44.21215" lon="1.15171">
        <ele>137.885</ele>
        <time>2016-09-26T17:24:26Z</time>
      </trkpt>
      <trkpt lat="44.21178" lon="1.15132">
        <ele>141.158</ele>
        <time>2016-09-26T17:24:46Z</time>
      </trkpt>
      <trkpt lat="44.21065" lon="1.15188">
        <ele>149.037</ele>
        <time>2016-09-26T17:25:06Z</time>
      </trkpt>
      <trkpt lat="44.21" lon="1.15259">
        <ele>152.322</ele>
        <time>2016-09-26T17:25:26Z</time>
      </trkpt>
      <trkpt lat="44.20914" lon="1.15327">
        <ele>153.262</ele>
        <time>2016-09-26T17:25:46Z</time>
      </trkpt>
      <trkpt lat="44.20798" lon="1.15375">
        <ele>156.508</ele>
        <time>2016-09-26T17:26:06Z</time>
      </trkpt>
      <trkpt lat="44.2068" lon="1.15314">
        <ele>165.608</ele>
        <time>2016-09-26T17:26:26Z</time>
      </trkpt>
      <trkpt lat="44.20609" lon="1.15441">
        <ele>171.278</ele>
        <time>2016-09-26T17:26:46Z</time>
      </trkpt>
      <trkpt lat="44.20557" lon="1.15456">
        <ele>161.745</ele>
        <time>2016-09-26T17:27:06Z</time>
      </trkpt>
      <trkpt lat="44.20437" lon="1.1536">
        <ele>136.284</ele>
        <time>2016-09-26T17:27:26Z</time>
      </trkpt>
      <trkpt lat="44.20475" lon="1.15248">
        <ele>132.053</ele>
        <time>2016-09-26T17:27:46Z</time>
      </trkpt>
      <trkpt lat="44.20331" lon="1.15138">
        <ele>118.889</ele>
        <time>2016-09-26T17:28:06Z</time>
      </trkpt>
      <trkpt lat="44.20169" lon="1.15394">
        <ele>119.67</ele>
        <time>2016-09-26T17:28:26Z</time>
      </trkpt>
      <trkpt lat="44.20095" lon="1.15456">
        <ele>123.333</ele>
        <time>2016-09-26T17:28:46Z</time>
      </trkpt>
      <trkpt lat="44.19934" lon="1.15802">
        <ele>122.772</ele>
        <time>2016-09-26T17:29:06Z</time>
      </trkpt>
      <trkpt lat="44.19934" lon="1.15802">
        <ele>122.772</ele>
        <time>2016-09-26T17:29:06Z</time>
      </trkpt>
      <trkpt lat="44.199" lon="1.15829">
        <ele>122.345</ele>
        <time>2016-09-26T17:29:26Z</time>
      </trkpt>
      <trkpt lat="44.19868" lon="1.15778">
        <ele>124.547</ele>
        <time>2016-09-26T17:29:46Z</time>
      </trkpt>
      <trkpt lat="44.19811" lon="1.15744">
        <ele>137.111</ele>
        <time>2016-09-26T17:30:06Z</time>
      </trkpt>
      <trkpt lat="44.19725" lon="1.15774">
        <ele>146.108</ele>
        <time>2016-09-26T17:30:26Z</time>
      </trkpt>
      <trkpt lat="44.19592" lon="1.15774">
        <ele>154.78</ele>
        <time>2016-09-26T17:30:46Z</time>
      </trkpt>
      <trkpt lat="44.19557" lon="1.15808">
        <ele>158.827</ele>
        <time>2016-09-26T17:31:06Z</time>
      </trkpt>
      <trkpt lat="44.19499" lon="1.1581">
        <ele>168.996</ele>
        <time>2016-09-26T17:31:26Z</time>
      </trkpt>
      <trkpt lat="44.19482" lon="1.15795">
        <ele>170.785</ele>
        <time>2016-09-26T17:31:46Z</time>
      </trkpt>
      <trkpt lat="44.19432" lon="1.15793">
        <ele>169.831</ele>
        <time>2016-09-26T17:32:06Z</time>
      </trkpt>
      <trkpt lat="44.19328" lon="1.15827">
        <ele>171.452</ele>
        <time>2016-09-26T17:32:26Z</time>
      </trkpt>
      <trkpt lat="44.19228" lon="1.15817">
        <ele>169.135</ele>
        <time>2016-09-26T17:32:46Z</time>
      </trkpt>
      <trkpt lat="44.19185" lon="1.15729">
        <ele>170.934</ele>
        <time>2016-09-26T17:33:06Z</time>
      </trkpt>
      <trkpt lat="44.19186" lon="1.15693">
        <ele>174.1</ele>
      </trkpt>
      <trkpt lat="44.19216" lon="1.15568">
        <ele>184.211</ele>
        <time>2016-09-26T17:33:26Z</time>
      </trkpt>
      <trkpt lat="44.19205" lon="1.15528">
        <ele>187.6</ele>
        <time>2016-09-26T17:33:46Z</time>
      </trkpt>
      <trkpt lat="44.1918" lon="1.15497">
        <ele>188.303</ele>
        <time>2016-09-26T17:34:06Z</time>
      </trkpt>
      <trkpt lat="44.19072" lon="1.15649">
        <ele>193.608</ele>
        <time>2016-09-26T17:34:26Z</time>
      </trkpt>
      <trkpt lat="44.18966" lon="1.15765">
        <ele>200.427</ele>
        <time>2016-09-26T17:34:46Z</time>
      </trkpt>
      <trkpt lat="44.18905" lon="1.15659">
        <ele>183.6</ele>
        <time>2016-09-26T17:35:06Z</time>
      </trkpt>
      <trkpt lat="44.18924" lon="1.15628">
        <ele>182.2</ele>
      </trkpt>
      <trkpt lat="44.18895" lon="1.15616">
        <ele>179.5</ele>
        <time>2016-09-26T17:35:46Z</time>
      </trkpt>
      <trkpt lat="44.1888" lon="1.15612">
        <ele>179</ele>
      </trkpt>
      <trkpt lat="44.1868" lon="1.15493">
        <ele>189.048</ele>
        <time>2016-09-26T17:36:06Z</time>
      </trkpt>
      <trkpt lat="44.18523" lon="1.15442">
        <ele>188.619</ele>
        <time>2019-03-30T15:55:28Z</time>
      </trkpt>
      <trkpt lat="44.1842" lon="1.1537">
        <ele>181.3</ele>
        <time>2019-03-30T15:55:48Z</time>
      </trkpt>
      <trkpt lat="44.18357" lon="1.15271">
        <ele>181.8</ele>
        <time>2016-09-26T17:37:06Z</time>
      </trkpt>
      <trkpt lat="44.18312" lon="1.15327">
        <ele>179.887</ele>
        <time>2016-09-26T17:37:26Z</time>
      </trkpt>
      <trkpt lat="44.18177" lon="1.15203">
        <ele>161.942</ele>
        <time>2016-09-26T17:37:46Z</time>
      </trkpt>
      <trkpt lat="44.18141" lon="1.15205">
        <ele>157.6</ele>
      </trkpt>
      <trkpt lat="44.1802" lon="1.1525">
        <ele>143.926</ele>
        <time>2016-09-26T17:38:06Z</time>
      </trkpt>
      <trkpt lat="44.17989" lon="1.15317">
        <ele>139.108</ele>
        <time>2016-09-26T17:38:26Z</time>
      </trkpt>
      <trkpt lat="44.17925" lon="1.154">
        <ele>138.894</ele>
        <time>2016-09-26T17:38:46Z</time>
      </trkpt>
      <trkpt lat="44.17875" lon="1.15426">
        <ele>135.251</ele>
        <time>2016-09-26T17:39:06Z</time>
      </trkpt>
      <trkpt lat="44.17864" lon="1.15402">
        <ele>135</ele>
      </trkpt>
      <trkpt lat="44.17848" lon="1.15392">
        <ele>135.3</ele>
        <time>2016-09-26T17:39:26Z</time>
      </trkpt>
      <trkpt lat="44.17761" lon="1.15441">
        <ele>139.459</ele>
        <time>2016-09-26T17:39:46Z</time>
      </trkpt>
      <trkpt lat="44.17783" lon="1.15317">
        <ele>144</ele>
        <time>2016-09-26T17:40:06Z</time>
      </trkpt>
      <trkpt lat="44.17772" lon="1.15278">
        <ele>148</ele>
      </trkpt>
      <trkpt lat="44.17758" lon="1.15241">
        <ele>154.466</ele>
        <time>2016-09-26T17:40:26Z</time>
      </trkpt>
      <trkpt lat="44.17757" lon="1.15141">
        <ele>159.439</ele>
        <time>2016-09-26T17:40:46Z</time>
      </trkpt>
      <trkpt lat="44.17683" lon="1.15053">
        <ele>174.438</ele>
        <time>2016-09-26T17:41:06Z</time>
      </trkpt>
      <trkpt lat="44.17798" lon="1.14842">
        <ele>177.568</ele>
        <time>2016-09-26T17:41:26Z</time>
      </trkpt>
      <trkpt lat="44.17809" lon="1.1478">
        <ele>180.442</ele>
        <time>2016-09-26T17:41:46Z</time>
      </trkpt>
      <trkpt lat="44.17805" lon="1.14692">
        <ele>185.826</ele>
        <time>2016-09-26T17:42:06Z</time>
      </trkpt>
      <trkpt lat="44.17845" lon="1.14615">
        <ele>187.008</ele>
        <time>2016-09-26T17:42:26Z</time>
      </trkpt>
      <trkpt lat="44.17948" lon="1.14312">
        <ele>182.172</ele>
        <time>2016-09-26T17:42:46Z</time>
      </trkpt>
      <trkpt lat="44.17945" lon="1.1422">
        <ele>181.049</ele>
        <time>2016-09-26T17:43:06Z</time>
      </trkpt>
      <trkpt lat="44.17904" lon="1.14091">
        <ele>180</ele>
        <time>2016-09-26T17:43:26Z</time>
      </trkpt>
      <trkpt lat="44.17902" lon="1.1403">
        <ele>179</ele>
        <time>2016-09-26T17:43:46Z</time>
      </trkpt>
      <trkpt lat="44.17938" lon="1.13909">
        <ele>180.973</ele>
        <time>2016-09-26T17:44:06Z</time>
      </trkpt>
      <trkpt lat="44.17938" lon="1.13744">
        <ele>178.244</ele>
        <time>2016-09-26T17:44:26Z</time>
      </trkpt>
      <trkpt lat="44.17918" lon="1.13544">
        <ele>180.257</ele>
        <time>2016-09-26T17:44:46Z</time>
      </trkpt>
      <trkpt lat="44.17917" lon="1.13308">
        <ele>184.086</ele>
        <time>2016-09-26T17:45:06Z</time>
      </trkpt>
      <trkpt lat="44.17951" lon="1.1316">
        <ele>185.011</ele>
        <time>2016-09-26T17:45:26Z</time>
      </trkpt>
      <trkpt lat="44.18014" lon="1.12999">
        <ele>181.521</ele>
        <time>2016-09-26T17:45:46Z</time>
      </trkpt>
      <trkpt lat="44.18029" lon="1.12892">
        <ele>179.103</ele>
        <time>2016-09-26T17:46:06Z</time>
      </trkpt>
      <trkpt lat="44.18033" lon="1.12835">
        <ele>182.2</ele>
      </trkpt>
      <trkpt lat="44.18038" lon="1.12776">
        <ele>184.2</ele>
      </trkpt>
      <trkpt lat="44.1804" lon="1.12747">
        <ele>185.6</ele>
      </trkpt>
      <trkpt lat="44.1804" lon="1.12738">
        <ele>186.1</ele>
      </trkpt>
      <trkpt lat="44.18041" lon="1.12707">
        <ele>187.3</ele>
      </trkpt>
      <trkpt lat="44.18039" lon="1.12707">
        <ele>187.3</ele>
      </trkpt>
      <trkpt lat="44.1802" lon="1.12707">
        <ele>187.3</ele>
      </trkpt>
      <trkpt lat="44.1799" lon="1.12691">
        <ele>187.3</ele>
      </trkpt>
      <trkpt lat="44.17945" lon="1.12664">
        <ele>186.3</ele>
      </trkpt>
      <trkpt lat="44.17938" lon="1.1266">
        <ele>186.4</ele>
      </trkpt>
      <trkpt lat="44.17927" lon="1.12654">
        <ele>186.4</ele>
        <time>2021-01-03T08:45:40Z</time>
      </trkpt>
      <trkpt lat="44.17903" lon="1.12638">
        <ele>186</ele>
      </trkpt>
      <trkpt lat="44.1784" lon="1.12488">
        <ele>180.633</ele>
        <time>2016-09-26T17:47:26Z</time>
      </trkpt>
      <trkpt lat="44.17789" lon="1.12413">
        <ele>175.372</ele>
        <time>2016-09-26T17:47:46Z</time>
      </trkpt>
      <trkpt lat="44.17597" lon="1.12276">
        <ele>174.568</ele>
        <time>2016-09-26T17:48:06Z</time>
      </trkpt>
      <trkpt lat="44.17528" lon="1.12185">
        <ele>171.3</ele>
      </trkpt>
      <trkpt lat="44.17495" lon="1.12139">
        <ele>171.4</ele>
      </trkpt>
      <trkpt lat="44.17454" lon="1.121">
        <ele>171.5</ele>
        <time>2019-03-30T16:07:28Z</time>
      </trkpt>
      <trkpt lat="44.17339" lon="1.12041">
        <ele>167.7</ele>
        <time>2019-03-30T16:07:48Z</time>
      </trkpt>
      <trkpt lat="44.17276" lon="1.12004">
        <ele>163.5</ele>
        <time>2019-03-30T16:08:08Z</time>
      </trkpt>
      <trkpt lat="44.17171" lon="1.11975">
        <ele>145.8</ele>
        <time>2019-03-30T16:08:28Z</time>
      </trkpt>
      <trkpt lat="44.17109" lon="1.11884">
        <ele>134.6</ele>
        <time>2019-03-30T16:08:48Z</time>
      </trkpt>
      <trkpt lat="44.17015" lon="1.11804">
        <ele>118.013</ele>
        <time>2016-09-26T17:50:06Z</time>
      </trkpt>
      <trkpt lat="44.16919" lon="1.11785">
        <ele>113.108</ele>
        <time>2019-03-30T16:09:28Z</time>
      </trkpt>
      <trkpt lat="44.16892" lon="1.11795">
        <ele>111.6</ele>
        <time>2019-03-30T16:09:48Z</time>
      </trkpt>
      <trkpt lat="44.16836" lon="1.11769">
        <ele>111</ele>
      </trkpt>
      <trkpt lat="44.16771" lon="1.11773">
        <ele>113.356</ele>
        <time>2019-03-30T16:10:08Z</time>
      </trkpt>
      <trkpt lat="44.16731" lon="1.11797">
        <ele>110.9</ele>
        <time>2019-03-30T16:10:28Z</time>
      </trkpt>
      <trkpt lat="44.16665" lon="1.11812">
        <ele>112.584</ele>
        <time>2019-03-30T16:10:48Z</time>
      </trkpt>
      <trkpt lat="44.16594" lon="1.11759">
        <ele>116.76</ele>
        <time>2019-03-30T16:11:08Z</time>
      </trkpt>
      <trkpt lat="44.16585" lon="1.11809">
        <ele>117.571</ele>
        <time>2021-01-03T08:51:00Z</time>
      </trkpt>
      <trkpt lat="44.1653" lon="1.11841">
        <ele>130.744</ele>
        <time>2021-01-03T08:51:20Z</time>
      </trkpt>
      <trkpt lat="44.16429" lon="1.1201">
        <ele>138.9</ele>
        <time>2021-01-03T08:51:40Z</time>
      </trkpt>
      <trkpt lat="44.16362" lon="1.12069">
        <ele>149.062</ele>
        <time>2021-01-03T08:52:00Z</time>
      </trkpt>
      <trkpt lat="44.16255" lon="1.12165">
        <ele>147.783</ele>
        <time>2021-01-03T08:52:20Z</time>
      </trkpt>
      <trkpt lat="44.16227" lon="1.12161">
        <ele>152.011</ele>
        <time>2021-01-03T08:52:40Z</time>
      </trkpt>
      <trkpt lat="44.16207" lon="1.12101">
        <ele>161.908</ele>
        <time>2021-01-03T08:53:00Z</time>
      </trkpt>
      <trkpt lat="44.16287" lon="1.12016">
        <ele>161.942</ele>
        <time>2021-01-03T08:53:20Z</time>
      </trkpt>
      <trkpt lat="44.16296" lon="1.11984">
        <ele>160.689</ele>
        <time>2021-01-03T08:53:40Z</time>
      </trkpt>
      <trkpt lat="44.16287" lon="1.11976">
        <ele>159.478</ele>
        <time>2021-01-03T08:54:00Z</time>
      </trkpt>
      <trkpt lat="44.1613" lon="1.12051">
        <ele>151.027</ele>
        <time>2021-01-03T08:54:20Z</time>
      </trkpt>
      <trkpt lat="44.16103" lon="1.1204">
        <ele>149.2</ele>
        <time>2021-01-03T08:54:40Z</time>
      </trkpt>
      <trkpt lat="44.16096" lon="1.11932">
        <ele>139.764</ele>
        <time>2021-01-03T08:55:00Z</time>
      </trkpt>
      <trkpt lat="44.1611" lon="1.11842">
        <ele>130.197</ele>
        <time>2021-01-03T08:55:20Z</time>
      </trkpt>
      <trkpt lat="44.16133" lon="1.11789">
        <ele>128.646</ele>
        <time>2021-01-03T08:55:40Z</time>
      </trkpt>
      <trkpt lat="44.16161" lon="1.11745">
        <ele>124.278</ele>
        <time>2021-01-03T08:56:00Z</time>
      </trkpt>
      <trkpt lat="44.1616" lon="1.11713">
        <ele>121.533</ele>
        <time>2021-01-03T08:56:20Z</time>
      </trkpt>
      <trkpt lat="44.16142" lon="1.11698">
        <ele>123.026</ele>
        <time>2021-01-03T08:56:40Z</time>
      </trkpt>
      <trkpt lat="44.16065" lon="1.11681">
        <ele>115.908</ele>
        <time>2021-01-03T08:57:00Z</time>
      </trkpt>
      <trkpt lat="44.16052" lon="1.1165">
        <ele>109.443</ele>
        <time>2021-01-03T08:57:20Z</time>
      </trkpt>
      <trkpt lat="44.16086" lon="1.11564">
        <ele>107.05</ele>
        <time>2021-01-03T08:57:40Z</time>
      </trkpt>
      <trkpt lat="44.16104" lon="1.11484">
        <ele>109.139</ele>
        <time>2021-01-03T08:58:00Z</time>
      </trkpt>
      <trkpt lat="44.16041" lon="1.11446">
        <ele>110.428</ele>
        <time>2021-01-03T08:58:20Z</time>
      </trkpt>
      <trkpt lat="44.1585" lon="1.11211">
        <ele>109.624</ele>
        <time>2021-01-03T08:58:40Z</time>
      </trkpt>
      <trkpt lat="44.1581" lon="1.1128">
        <ele>104.135</ele>
        <time>2016-09-26T17:53:26Z</time>
      </trkpt>
      <trkpt lat="44.15801" lon="1.11338">
        <ele>104.288</ele>
        <time>2016-09-26T17:53:46Z</time>
      </trkpt>
      <trkpt lat="44.15728" lon="1.11366">
        <ele>103.827</ele>
        <time>2016-09-26T17:54:06Z</time>
      </trkpt>
      <trkpt lat="44.15577" lon="1.11351">
        <ele>101.733</ele>
        <time>2016-09-26T17:54:26Z</time>
      </trkpt>
      <trkpt lat="44.15522" lon="1.11383">
        <ele>105.823</ele>
        <time>2016-09-26T17:54:46Z</time>
      </trkpt>
      <trkpt lat="44.15405" lon="1.11353">
        <ele>104.715</ele>
        <time>2016-09-26T17:55:06Z</time>
      </trkpt>
      <trkpt lat="44.15417" lon="1.11413">
        <ele>111.408</ele>
        <time>2016-09-26T17:55:26Z</time>
      </trkpt>
      <trkpt lat="44.15431" lon="1.11461">
        <ele>119.949</ele>
        <time>2016-09-26T17:55:46Z</time>
      </trkpt>
      <trkpt lat="44.15437" lon="1.11587">
        <ele>129.986</ele>
        <time>2016-09-26T17:56:06Z</time>
      </trkpt>
      <trkpt lat="44.1541" lon="1.11669">
        <ele>135.625</ele>
        <time>2016-09-26T17:56:26Z</time>
      </trkpt>
      <trkpt lat="44.15382" lon="1.11697">
        <ele>136.484</ele>
        <time>2016-09-26T17:56:46Z</time>
      </trkpt>
      <trkpt lat="44.15343" lon="1.11851">
        <ele>159.34</ele>
        <time>2016-09-26T17:57:06Z</time>
      </trkpt>
      <trkpt lat="44.15348" lon="1.1189">
        <ele>164.511</ele>
        <time>2016-09-26T17:57:26Z</time>
      </trkpt>
      <trkpt lat="44.15219" lon="1.11984">
        <ele>172.314</ele>
        <time>2016-09-26T17:57:46Z</time>
      </trkpt>
      <trkpt lat="44.15188" lon="1.12042">
        <ele>179.923</ele>
        <time>2016-09-26T17:58:06Z</time>
      </trkpt>
      <trkpt lat="44.15143" lon="1.12059">
        <ele>182.084</ele>
        <time>2016-09-26T17:58:26Z</time>
      </trkpt>
      <trkpt lat="44.1508" lon="1.12188">
        <ele>182.607</ele>
        <time>2016-09-26T17:58:46Z</time>
      </trkpt>
      <trkpt lat="44.15128" lon="1.12042">
        <ele>180.417</ele>
        <time>2016-09-26T17:59:06Z</time>
      </trkpt>
      <trkpt lat="44.15126" lon="1.11808">
        <ele>179.008</ele>
        <time>2016-09-26T17:59:26Z</time>
      </trkpt>
      <trkpt lat="44.15063" lon="1.11564">
        <ele>171.864</ele>
        <time>2016-09-26T17:59:46Z</time>
      </trkpt>
      <trkpt lat="44.15014" lon="1.11448">
        <ele>163.831</ele>
        <time>2016-09-26T18:00:06Z</time>
      </trkpt>
      <trkpt lat="44.14864" lon="1.11347">
        <ele>145.72</ele>
        <time>2016-09-26T18:00:26Z</time>
      </trkpt>
      <trkpt lat="44.14674" lon="1.11345">
        <ele>143.979</ele>
        <time>2016-09-26T18:00:46Z</time>
        <extensions>
          <visugpx:TrkExtension xmlns:visugpx="https://www.visugpx.com/editgpx/">
            <visugpx:node>6</visugpx:node>
            </visugpx:TrkExtension>
        </extensions>
      </trkpt>
    </trkseg>
  </trk>
</gpx>